Flight Track Log - Related Links

Times and Time Zones

All times are in EDT time to prevent confusion due to time zone crossing. See the PDT4477 flight status page for this flight to view local times or setup timezone preferences in your user account.

Time Position Orientation Groundspeed Altitude Reporting Facility
EDT Latitude Longitude Course Direction KTS MPH feet Rate Location/Type
Sun 11:55:24 AM 38.3608 -75.5467 202° Southwest 145 167 1,200  Level Washington Center
Sun 11:56:01 AM 38.3419 -75.5733 228° Southwest 187 215 1,900 1,175 Climbing Washington Center
Sun 11:57:00 AM 38.1588 -75.5938 199° South  Level FlightAware Approximate
Sun 11:57:01 AM 38.2983 -75.5917 198° South 175 201 3,100  Level Washington Center
Sun 11:58:00 AM 38.0990 -75.6195 199° South  Level FlightAware Approximate
Sun 11:58:02 AM 38.2461 -75.6181 202° Southwest 204 235 3,200  Level Washington Center
Sun 11:58:56 AM 38.1981 -75.6367 197° South 200 230 4,500 1,158 Climbing Washington Center
Sun 11:59:00 AM 38.0396 -75.6469 202° Southwest  Level FlightAware Approximate
Sun 11:59:56 AM 38.1544 -75.6525 196° South 181 208 5,400  Level Washington Center
Sun 12:00:00 PM 37.9808 -75.6763 202° Southwest  Level FlightAware Approximate
Sun 12:00:57 PM 38.1083 -75.6736 200° South 181 208 6,500  Level Washington Center
Sun 12:01:58 PM 38.0625 -75.6947 200° South 181 208 7,400 908 Climbing Washington Center
Sun 12:02:56 PM 38.0292 -75.7342 223° Southwest 176 203 8,300 864 Climbing Washington Center
Sun 12:03:56 PM 37.9894 -75.7708 216° Southwest 176 203 9,100 793 Climbing Washington Center
Sun 12:04:57 PM 37.9519 -75.8131 222° Southwest 176 203 9,900 843 Climbing Washington Center
Sun 12:05:57 PM 37.8997 -75.8550 212° Southwest 193 222 10,800 914 Climbing Washington Center
Sun 12:06:42 PM 37.8744 -75.8892 227° Southwest 189 217 11,500 962 Climbing Washington Center
Sun 12:07:43 PM 37.8347 -75.9258 216° Southwest 163 188 12,500 829 Climbing Washington Center
Sun 12:08:45 PM 37.7992 -75.9597 217° Southwest 161 185 13,200 732 Climbing Washington Center
Sun 12:09:46 PM 37.7617 -75.9964 218° Southwest 166 191 14,000 756 Climbing Washington Center
Sun 12:10:44 PM 37.7239 -76.0328 217° Southwest 168 193 14,700 641 Climbing Washington Center
Sun 12:11:57 PM 37.6819 -76.0797 222° Southwest 173 199 15,400 639 Climbing Washington Center
Sun 12:12:46 PM 37.6506 -76.1058 213° Southwest 167 192 16,000 661 Climbing Washington Center
Sun 12:13:55 PM 37.6131 -76.1450 220° Southwest 166 191 16,700 600 Climbing Washington Center
Sun 12:14:56 PM 37.5711 -76.1814 215° Southwest 166 191 17,300 496 Climbing Washington Center
Sun 12:15:56 PM 37.5333 -76.2178 217° Southwest 166 191 17,700 347 Climbing Washington Center
Sun 12:16:57 PM 37.4956 -76.2542 217° Southwest 171 197 18,000 393 Climbing Washington Center
Sun 12:17:58 PM 37.4578 -76.2903 217° Southwest 171 197 18,500 504 Climbing Washington Center
Sun 12:18:56 PM 37.4222 -76.3292 221° Southwest 176 203 19,000 407 Climbing Washington Center
Sun 12:19:56 PM 37.3864 -76.3631 217° Southwest 176 203 19,300 397 Climbing Washington Center
Sun 12:20:57 PM 37.3467 -76.3992 216° Southwest 176 203 19,800 347 Climbing Washington Center
Sun 12:21:57 PM 37.3089 -76.4353 217° Southwest 176 203 20,000 99 Climbing Washington Center
Sun 12:22:58 PM 37.2689 -76.4767 219° Southwest 176 203 20,000  Level Washington Center
Sun 12:23:58 PM 37.2247 -76.5203 218° Southwest 189 217 20,000  Level Washington Center
Sun 12:24:56 PM 37.1764 -76.5642 216° Southwest 200 230 20,000  Level Washington Center
Sun 12:25:57 PM 37.1303 -76.6106 219° Southwest 205 236 20,000  Level Washington Center
Sun 12:26:58 PM 37.0839 -76.6567 218° Southwest 210 242 20,000  Level Washington Center
Sun 12:27:56 PM 37.0375 -76.7031 219° Southwest 210 242 20,000  Level Washington Center
Sun 12:28:57 PM 36.9872 -76.7464 215° Southwest 220 253 20,000  Level Washington Center
Sun 12:29:58 PM 36.9408 -76.7950 220° Southwest 220 253 20,000  Level Washington Center
Sun 12:30:56 PM 36.8922 -76.8411 217° Southwest 220 253 20,000  Level Washington Center
Sun 12:31:56 PM 36.8458 -76.8869 218° Southwest 225 259 20,000  Level Washington Center
Sun 12:32:57 PM 36.7994 -76.9331 219° Southwest 225 259 20,000  Level Washington Center
Sun 12:33:58 PM 36.7511 -76.9786 217° Southwest 225 259 20,000  Level Washington Center
Sun 12:34:56 PM 36.7044 -77.0272 220° Southwest 225 259 20,000  Level Washington Center
Sun 12:35:57 PM 36.6767 -77.0914 242° Southwest 219 252 20,000  Level Washington Center
Sun 12:36:58 PM 36.6444 -77.1606 240° Southwest 219 252 20,000  Level Washington Center
Sun 12:37:55 PM 36.6164 -77.2247 241° Southwest 224 258 20,000  Level Washington Center
Sun 12:38:56 PM 36.5864 -77.2889 240° Southwest 224 258 20,000  Level Washington Center
Sun 12:39:56 PM 36.5561 -77.3528 239° Southwest 224 258 20,000  Level Washington Center
Sun 12:40:57 PM 36.5261 -77.4167 240° Southwest 224 258 20,000  Level Washington Center
Sun 12:41:57 PM 36.4958 -77.4806 239° Southwest 224 258 20,000  Level Washington Center
Sun 12:42:58 PM 36.4678 -77.5394 239° Southwest 224 258 20,000  Level Washington Center
Sun 12:43:58 PM 36.4375 -77.6031 239° Southwest 224 258 20,000  Level Washington Center
Sun 12:44:58 PM 36.4092 -77.6694 242° Southwest 224 258 20,000  Level Washington Center
Sun 12:45:56 PM 36.3789 -77.7333 240° Southwest 224 258 20,000  Level Washington Center
Sun 12:46:56 PM 36.3464 -77.7994 239° Southwest 224 258 20,000  Level Washington Center
Sun 12:47:57 PM 36.3161 -77.8656 240° Southwest 218 251 20,000 -347 Level Washington Center
Sun 12:48:57 PM 36.2833 -77.9317 238° Southwest 223 257 19,300 -893 Descending Washington Center
Sun 12:49:58 PM 36.2486 -78.0106 241° Southwest 240 276 18,200 -1,091 Descending Washington Center
Sun 12:50:58 PM 36.2117 -78.0839 238° Southwest 258 297 17,100 -1,179 Descending Washington Center
Sun 12:51:55 PM 36.1744 -78.1650 240° Southwest 267 307 15,900 -712 Descending Washington Center
Sun 12:52:56 PM 36.1661 -78.2600 264° West 253 291 15,700 -50 Descending Washington Center
Sun 12:53:56 PM 36.1603 -78.3319 264° West 247 284 15,800  Climbing Washington Center
Sun 12:54:57 PM 36.1561 -78.4167 267° West 235 270 15,700 149 Descending Washington Center
Sun 12:55:57 PM 36.1503 -78.4858 264° West 230 265 16,100 149 Climbing Washington Center
Sun 12:56:58 PM 36.1442 -78.5706 265° West 230 265 16,000  Descending Washington Center
Sun 12:57:56 PM 36.1403 -78.6372 266° West 230 265 16,100 50 Climbing Washington Center
Sun 12:58:58 PM 36.1364 -78.7039 266° West 230 265 16,100 -246 Level Washington Center
Sun 12:59:58 PM 36.1319 -78.7964 267° West 230 265 15,600 -712 Descending Washington Center
Sun 01:00:56 PM 36.1256 -78.8811 265° West 237 273 14,700 -908 Descending Washington Center
Sun 01:01:57 PM 36.1189 -78.9681 265° West 242 278 13,800 -843 Descending Washington Center
Sun 01:02:57 PM 36.1144 -79.0528 266° West 252 290 13,000 -151 Descending Washington Center
Sun 01:05:00 PM 36.0998 -79.2015 263° West  Level FlightAware Approximate
Sun 01:07:15 PM 36.0875 -79.3858 264° West 219 252 13,000  Level Washington Center
Sun 01:09:00 PM 36.0759 -79.5129 264° West  Level FlightAware Approximate
Sun 01:12:00 PM 36.0551 -79.7105 264° West  Level FlightAware Approximate
Sun 01:16:00 PM 36.0145 -79.9942 230° Southwest  Level FlightAware Approximate
Sun 01:17:00 PM 35.9763 -80.0499 230° Southwest  Level FlightAware Approximate
Sun 01:17:10 PM 35.9200 -80.0978 230° Southwest 234 269 9,800  Level Atlanta Center
Sun 01:18:00 PM 35.9381 -80.1055 230° Southwest  Level FlightAware Approximate
Sun 01:18:29 PM 35.8789 -80.1894 241° Southwest 241 277 8,600  Level Atlanta Center
Sun 01:19:00 PM 35.8998 -80.1611 230° Southwest  Level FlightAware Approximate
Sun 01:19:30 PM 35.8442 -80.2731 243° Southwest 244 281 7,600  Level Atlanta Center
Sun 01:20:00 PM 35.8616 -80.2166 230° Southwest  Level FlightAware Approximate
Sun 01:20:37 PM 35.8108 -80.3489 242° Southwest 241 277 6,700  Level Atlanta Center
Sun 01:21:33 PM 35.7794 -80.4142 239° Southwest 239 275 6,000 -359 Descending Atlanta Center
Sun 01:22:34 PM 35.7461 -80.4822 239° Southwest 235 270 6,000  Level Atlanta Center
Sun 01:23:35 PM 35.7128 -80.5578 241° Southwest 231 266 6,000  Level Atlanta Center
Sun 01:24:36 PM 35.6833 -80.6256 242° Southwest 231 266 6,000  Level Atlanta Center
Sun 01:25:38 PM 35.6519 -80.6958 241° Southwest 232 267 6,000  Level Atlanta Center
Sun 01:26:33 PM 35.6494 -80.7650 267° West 203 234 6,000 -362 Level Atlanta Center
Sun 01:27:34 PM 35.6469 -80.8289 267° West 172 198 5,300 -738 Descending Atlanta Center
Sun 01:28:35 PM 35.6425 -80.8906 265° West 172 198 4,500 -639 Descending Atlanta Center
Sun 01:29:36 PM 35.6289 -80.9369 250° West 165 190 4,000 -246 Descending Atlanta Center
Sun 01:30:37 PM 35.5836 -80.9592 202° Southwest 177 204 4,000  Level Atlanta Center
Sun 01:31:39 PM 35.5317 -80.9636 184° South 178 205 4,000  Level Atlanta Center
Sun 01:32:40 PM 35.4814 -80.9606 177° South 183 211 4,000  Level Atlanta Center
Sun 01:33:47 PM 35.4272 -80.9572 177° South 183 211 4,000 -141 Level Atlanta Center
Sun 01:34:48 PM 35.3728 -80.9517 175° South 177 204 3,700 -639 Descending Atlanta Center
Sun 01:35:49 PM 35.3247 -80.9483 177° South 181 208 2,700 -847 Descending Atlanta Center
Sun 01:37:45 PM 35.2472 -80.9411 176° South 126 145 1,200 -776 Descending Atlanta Center

Login

Don't have an account? Register now (free) for customized features, flight alerts, and more!